Time;durP1;ratioP1;P1;durP2;ratioP2;P2;SDS_P1;SDS_P2;PMS_P1;PMS_P2;Temp;Humidity;BMP_temperature;BMP_pressure;BME280_temperature;BME280_humidity;BME280_pressure;Samples;Min_cycle;Max_cycle;Signal;HPM_P1;HPM_P2
2023/03/21 00:03:45;;;;;;;18.27;7.13;;;;;;;8.56;100.00;101502.38;10447695;28;20515;-77
2023/03/21 00:08:46;;;;;;;17.02;7.35;;;;;;;8.58;100.00;101498.19;10470146;28;20043;-78
2023/03/21 00:13:46;;;;;;;20.85;8.27;;;;;;;8.53;100.00;101492.66;10470193;28;20064;-78
2023/03/21 00:18:51;;;;;;;16.65;7.90;;;;;;;8.56;100.00;101489.34;10456205;28;20110;-77
2023/03/21 00:23:51;;;;;;;18.25;8.48;;;;;;;8.54;100.00;101496.16;10460686;28;20175;-77
2023/03/21 00:28:52;;;;;;;16.30;8.40;;;;;;;8.55;100.00;101498.91;10448795;28;20098;-78
2023/03/21 00:33:52;;;;;;;15.90;7.22;;;;;;;8.57;100.00;101480.72;10446779;28;20044;-77
2023/03/21 00:38:53;;;;;;;13.10;8.88;;;;;;;8.43;100.00;101482.41;10452956;28;20086;-78
2023/03/21 00:43:54;;;;;;;17.65;8.65;;;;;;;8.35;100.00;101474.97;10457422;28;20041;-78
2023/03/21 00:48:54;;;;;;;21.58;11.10;;;;;;;8.30;100.00;101463.31;10444993;28;20037;-77
2023/03/21 00:53:56;;;;;;;14.80;8.13;;;;;;;8.25;100.00;101449.06;10436116;28;20569;-77
2023/03/21 00:58:56;;;;;;;20.47;9.23;;;;;;;8.20;100.00;101443.53;10447180;28;20037;-77
2023/03/21 01:04:03;;;;;;;18.77;9.05;;;;;;;8.11;100.00;101442.03;10445054;28;20321;-77
2023/03/21 01:09:04;;;;;;;19.30;8.85;;;;;;;8.07;100.00;101435.69;10471881;28;20439;-78
2023/03/21 01:14:04;;;;;;;19.65;9.50;;;;;;;8.10;100.00;101432.41;10440749;28;20083;-78
2023/03/21 01:19:05;;;;;;;17.73;9.40;;;;;;;8.05;100.00;101434.69;10473963;28;20128;-77
2023/03/21 01:24:06;;;;;;;14.70;8.65;;;;;;;7.91;100.00;101424.25;10473569;28;20504;-77
2023/03/21 01:29:06;;;;;;;18.83;8.13;;;;;;;7.82;100.00;101421.00;10444546;28;20048;-77
2023/03/21 01:34:07;;;;;;;17.95;8.25;;;;;;;7.73;100.00;101418.72;10465166;28;20108;-78
2023/03/21 01:39:08;;;;;;;17.50;7.35;;;;;;;7.62;100.00;101417.97;10444882;28;20036;-77
2023/03/21 01:44:16;;;;;;;15.02;8.77;;;;;;;7.39;100.00;101410.25;10426167;28;20536;-77
2023/03/21 01:49:25;;;;;;;16.80;7.53;;;;;;;7.17;100.00;101403.56;10444688;28;20041;-77
2023/03/21 01:54:28;;;;;;;17.40;8.73;;;;;;;7.11;100.00;101401.44;10414830;28;20128;-78
2023/03/21 01:59:30;;;;;;;20.17;8.75;;;;;;;7.25;100.00;101405.00;10439494;28;20051;-77
2023/03/21 02:04:31;;;;;;;13.80;8.15;;;;;;;7.27;100.00;101393.00;10434941;28;20188;-78
2023/03/21 02:09:32;;;;;;;19.35;7.65;;;;;;;7.37;100.00;101397.16;10435387;28;20131;-77
2023/03/21 02:14:33;;;;;;;15.57;8.97;;;;;;;7.45;100.00;101389.84;10401846;28;20091;-78
2023/03/21 02:19:55;;;;;;;16.67;7.50;;;;;;;7.44;100.00;101388.03;10426244;28;20055;-78
2023/03/21 02:25:15;;;;;;;17.40;8.38;;;;;;;7.40;100.00;101373.94;10474375;28;20032;-77
2023/03/21 02:30:23;;;;;;;13.75;7.80;;;;;;;7.44;100.00;101359.41;10452991;28;20036;-77
2023/03/21 02:35:35;;;;;;;18.95;9.18;;;;;;;7.51;100.00;101358.13;10442499;28;20041;-77
2023/03/21 02:41:02;;;;;;;21.58;10.02;;;;;;;7.57;100.00;101345.53;10457920;28;20067;-77
2023/03/21 02:46:21;;;;;;;30.17;8.98;;;;;;;7.63;100.00;101340.72;10427072;28;20068;-77
2023/03/21 02:51:22;;;;;;;19.10;7.47;;;;;;;7.70;100.00;101331.59;10402112;28;20034;-78
2023/03/21 02:56:23;;;;;;;18.45;8.95;;;;;;;7.73;100.00;101327.50;10418319;28;20043;-77
2023/03/21 03:01:24;;;;;;;13.30;7.00;;;;;;;7.77;100.00;101326.00;10466932;28;20052;-77
2023/03/21 03:06:28;;;;;;;15.73;7.93;;;;;;;7.70;100.00;101329.91;10463745;28;20037;-78
2023/03/21 03:11:35;;;;;;;16.25;8.25;;;;;;;7.69;100.00;101328.09;10475622;28;20567;-78
2023/03/21 03:16:35;;;;;;;24.40;8.98;;;;;;;7.60;100.00;101322.28;10463426;28;20036;-77
2023/03/21 03:21:41;;;;;;;30.38;9.82;;;;;;;7.50;100.00;101320.75;10450801;28;20044;-77
2023/03/21 03:26:47;;;;;;;19.98;8.73;;;;;;;7.41;100.00;101331.47;10425787;28;20044;-77
2023/03/21 03:31:55;;;;;;;27.98;8.95;;;;;;;7.38;100.00;101326.03;10473155;28;20037;-77
2023/03/21 03:36:56;;;;;;;18.02;8.13;;;;;;;7.30;100.00;101324.63;10448012;28;20033;-77
2023/03/21 03:42:06;;;;;;;21.88;11.27;;;;;;;7.26;100.00;101320.88;10432427;28;20040;-77
2023/03/21 03:47:16;;;;;;;20.98;9.70;;;;;;;7.16;100.00;101313.25;10449156;28;20037;-77
2023/03/21 03:52:22;;;;;;;25.40;10.90;;;;;;;7.13;100.00;101308.75;10449680;28;20044;-77
2023/03/21 03:57:24;;;;;;;19.45;10.60;;;;;;;7.08;100.00;101317.03;10389335;28;20560;-77
2023/03/21 04:02:25;;;;;;;25.08;12.68;;;;;;;7.04;100.00;101311.59;10440036;28;20029;-77
2023/03/21 04:07:26;;;;;;;22.98;11.80;;;;;;;6.99;100.00;101315.59;10422622;28;20071;-77
2023/03/21 04:12:27;;;;;;;23.43;13.23;;;;;;;6.96;100.00;101307.56;10436744;28;20057;-77
2023/03/21 04:17:27;;;;;;;24.75;13.32;;;;;;;6.99;100.00;101312.97;10421530;28;20622;-77
2023/03/21 04:22:28;;;;;;;19.30;11.35;;;;;;;6.98;100.00;101311.19;10446682;28;20460;-77
2023/03/21 04:27:29;;;;;;;24.55;10.57;;;;;;;6.98;100.00;101311.19;10447058;28;20126;-77
2023/03/21 04:32:32;;;;;;;26.65;14.15;;;;;;;6.96;100.00;101315.38;10458575;28;20033;-77
2023/03/21 04:37:35;;;;;;;16.35;10.65;;;;;;;6.97;100.00;101309.38;10455404;28;20032;-77
2023/03/21 04:42:36;;;;;;;23.25;13.77;;;;;;;6.96;100.00;101307.56;10455676;28;20033;-77
2023/03/21 04:47:36;;;;;;;21.45;11.23;;;;;;;6.96;100.00;101306.69;10470789;28;20068;-77
2023/03/21 04:52:37;;;;;;;18.60;9.80;;;;;;;6.99;100.00;101301.69;10465688;28;20125;-77
2023/03/21 04:57:38;;;;;;;22.67;10.00;;;;;;;7.02;100.00;101291.50;10423960;28;20448;-77
2023/03/21 05:02:38;;;;;;;23.83;11.88;;;;;;;7.09;100.00;101290.19;10445970;28;20060;-77
2023/03/21 05:07:39;;;;;;;20.30;10.43;;;;;;;7.12;100.00;101291.31;10465564;28;20045;-77
2023/03/21 05:12:40;;;;;;;21.17;9.10;;;;;;;7.22;100.00;101292.84;10444399;28;20565;-77
2023/03/21 05:17:41;;;;;;;18.45;9.52;;;;;;;7.30;100.00;101294.25;10461015;28;20074;-77
2023/03/21 05:22:44;;;;;;;14.47;7.50;;;;;;;7.33;100.00;101289.25;10435275;28;20050;-77
2023/03/21 05:27:52;;;;;;;14.63;7.53;;;;;;;7.42;100.00;101282.88;10469986;28;20417;-76
2023/03/21 05:32:53;;;;;;;18.40;7.50;;;;;;;7.46;100.00;101274.47;10452340;28;20067;-76
2023/03/21 05:37:54;;;;;;;16.85;7.65;;;;;;;7.45;100.00;101272.66;10422309;28;20445;-75
2023/03/21 05:42:55;;;;;;;22.05;10.15;;;;;;;7.39;100.00;101265.34;10414135;28;20032;-75
2023/03/21 05:47:55;;;;;;;16.13;7.45;;;;;;;7.43;100.00;101262.16;10432658;28;20081;-76
2023/03/21 05:52:56;;;;;;;17.70;10.18;;;;;;;7.45;100.00;101273.56;10452434;28;20063;-76
2023/03/21 05:57:56;;;;;;;13.63;6.65;;;;;;;7.44;100.00;101270.84;10435620;28;20040;-76
2023/03/21 06:02:57;;;;;;;10.88;7.30;;;;;;;7.55;100.00;101282.88;10473559;28;20452;-76
2023/03/21 06:07:57;;;;;;;18.08;8.48;;;;;;;7.55;100.00;101272.47;10483071;28;20028;-77
2023/03/21 06:12:58;;;;;;;17.33;6.43;;;;;;;7.58;100.00;101277.00;10432851;28;20034;-77
2023/03/21 06:17:58;;;;;;;15.00;6.47;;;;;;;7.66;100.00;101267.06;10443131;28;20441;-77
2023/03/21 06:22:59;;;;;;;12.25;5.88;;;;;;;7.74;100.00;101258.03;10447002;28;20073;-77
2023/03/21 06:27:59;;;;;;;13.70;7.00;;;;;;;7.81;100.00;101256.75;10442395;28;20048;-77
2023/03/21 06:33:00;;;;;;;14.82;7.18;;;;;;;7.94;100.00;101252.41;10441585;28;20128;-77
2023/03/21 06:38:00;;;;;;;14.43;7.28;;;;;;;7.96;100.00;101255.16;10437610;28;20139;-77
2023/03/21 06:43:01;;;;;;;12.18;6.22;;;;;;;8.02;100.00;101255.53;10438192;28;20461;-77
2023/03/21 06:48:02;;;;;;;20.10;7.55;;;;;;;8.12;100.00;101257.00;10401888;28;20128;-77
2023/03/21 06:53:02;;;;;;;14.88;5.70;;;;;;;8.23;100.00;101244.69;10417033;28;20068;-78
2023/03/21 06:58:03;;;;;;;10.98;5.82;;;;;;;8.28;100.00;101251.09;10452170;28;20079;-77
2023/03/21 07:03:03;;;;;;;14.02;7.50;;;;;;;8.33;100.00;101248.75;10467681;28;20125;-77
2023/03/21 07:08:05;;;;;;;16.55;7.15;;;;;;;8.37;100.00;101249.06;10441634;28;20043;-76
2023/03/21 07:13:05;;;;;;;14.70;7.63;;;;;;;8.43;100.00;101251.13;10400296;28;20377;-77
2023/03/21 07:18:07;;;;;;;16.02;6.53;;;;;;;8.49;100.00;101267.19;10450516;28;20045;-76
2023/03/21 07:23:07;;;;;;;13.60;6.87;;;;;;;8.55;100.00;101269.31;10429479;28;20128;-76
2023/03/21 07:28:08;;;;;;;15.80;7.88;;;;;;;8.58;100.00;101261.66;10401509;28;20290;-77
2023/03/21 07:33:08;;;;;;;19.38;7.15;;;;;;;8.64;100.00;101258.50;10415781;28;20045;-77
2023/03/21 07:38:09;;;;;;;13.52;6.85;;;;;;;8.69;100.00;101264.03;10433316;28;20033;-77
2023/03/21 07:43:09;;;;;;;14.82;9.93;;;;;;;8.79;100.00;101269.00;10453440;28;20035;-77
2023/03/21 07:48:11;;;;;;;17.35;6.18;;;;;;;8.76;100.00;101267.09;10434724;28;20473;-76
2023/03/21 07:53:12;;;;;;;6.90;4.22;;;;;;;8.59;100.00;101276.50;10401781;28;20075;-77
2023/03/21 07:58:12;;;;;;;12.98;8.02;;;;;;;8.64;100.00;101275.09;10443707;28;20051;-74
2023/03/21 08:03:13;;;;;;;11.43;5.18;;;;;;;8.72;100.00;101285.09;10422556;28;20124;-74
2023/03/21 08:08:13;;;;;;;11.10;5.60;;;;;;;8.72;100.00;101285.09;10425787;28;20124;-74
2023/03/21 08:13:14;;;;;;;12.85;7.03;;;;;;;8.68;100.00;101284.00;10425973;28;20130;-75
2023/03/21 08:18:14;;;;;;;15.60;7.03;;;;;;;8.82;100.00;101290.09;10444323;28;20045;-75
2023/03/21 08:23:15;;;;;;;11.82;5.38;;;;;;;8.95;100.00;101281.28;10436707;28;20124;-76
2023/03/21 08:28:15;;;;;;;13.60;5.65;;;;;;;9.03;100.00;101271.31;10439546;28;20116;-77
2023/03/21 08:33:17;;;;;;;15.52;7.72;;;;;;;9.13;100.00;101267.53;10421340;28;21018;-76
2023/03/21 08:38:17;;;;;;;15.07;6.53;;;;;;;9.25;100.00;101255.19;10405133;28;20103;-75
2023/03/21 08:43:18;;;;;;;13.73;6.68;;;;;;;9.36;100.00;101258.47;10446028;28;20068;-76
2023/03/21 08:48:19;;;;;;;13.00;5.45;;;;;;;9.40;100.00;101250.88;10447082;28;20075;-76
2023/03/21 08:53:19;;;;;;;13.40;5.72;;;;;;;9.43;100.00;101246.66;10445154;28;20490;-77
2023/03/21 08:58:20;;;;;;;11.55;6.80;;;;;;;9.51;100.00;101246.28;10447036;28;20033;-75
2023/03/21 09:03:20;;;;;;;15.90;7.65;;;;;;;9.59;100.00;101245.84;10444746;28;20080;-77
2023/03/21 09:08:22;;;;;;;17.52;6.50;;;;;;;9.51;100.00;101248.00;10419487;28;20030;-76
2023/03/21 09:13:22;;;;;;;11.17;6.90;;;;;;;9.55;100.00;101239.53;10431176;28;20392;-76
2023/03/21 09:18:43;;;;;;;12.75;4.90;;;;;;;9.33;100.00;101234.78;10484977;28;20354;-76
2023/03/21 09:23:43;;;;;;;9.65;4.65;;;;;;;9.23;100.00;101215.94;10379938;28;20489;-76
2023/03/21 09:28:45;;;;;;;8.90;5.22;;;;;;;9.13;100.00;101211.00;10378808;28;20088;-76
2023/03/21 09:33:46;;;;;;;10.67;5.70;;;;;;;9.20;100.00;101204.41;10422265;28;20048;-78
2023/03/21 09:38:47;;;;;;;19.90;7.23;;;;;;;9.33;100.00;101212.16;10444000;28;20040;-78
2023/03/21 09:44:08;;;;;;;15.48;5.63;;;;;;;9.51;100.00;101209.72;10443376;28;20366;-77
2023/03/21 09:49:24;;;;;;;16.85;6.38;;;;;;;10.19;100.00;101206.47;10421849;28;20074;-78
2023/03/21 09:54:32;;;;;;;7.63;4.38;;;;;;;10.71;100.00;101179.59;10443482;28;20384;-79
2023/03/21 09:59:40;;;;;;;11.48;5.60;;;;;;;10.82;100.00;101191.50;10432116;28;20135;-78
2023/03/21 10:04:43;;;;;;;15.50;4.72;;;;;;;10.87;100.00;101170.81;10413119;28;20040;-75
2023/03/21 10:09:45;;;;;;;7.20;4.05;;;;;;;11.14;100.00;101162.56;10474718;28;20396;-76
2023/03/21 10:14:50;;;;;;;;;;;;;;;11.26;100.00;101157.94;10429502;28;20095;-78
2023/03/21 10:19:59;;;;;;;14.55;3.97;;;;;;;11.25;100.00;101149.97;10451493;28;19932;-78
2023/03/21 10:25:00;;;;;;;8.93;4.18;;;;;;;11.21;100.00;101148.03;10475081;28;20049;-77
2023/03/21 10:30:01;;;;;;;10.10;4.50;;;;;;;11.11;100.00;101134.47;10433003;28;20053;-78
2023/03/21 10:35:03;;;;;;;8.45;3.75;;;;;;;11.04;100.00;101136.72;10451175;28;20528;-77
2023/03/21 10:40:06;;;;;;;10.82;5.47;;;;;;;11.06;100.00;101142.94;10404157;28;20049;-78
2023/03/21 10:45:15;;;;;;;7.10;3.97;;;;;;;11.07;100.00;101136.88;10435370;28;20132;-78
2023/03/21 10:50:19;;;;;;;7.60;4.32;;;;;;;11.22;100.00;101131.47;10470726;28;20485;-78
2023/03/21 10:55:31;;;;;;;9.05;4.28;;;;;;;11.48;100.00;101126.63;10457035;28;20045;-78
2023/03/21 11:00:37;;;;;;;6.65;4.05;;;;;;;11.89;100.00;101119.81;10491001;28;20453;-77
2023/03/21 11:05:38;;;;;;;12.02;3.67;;;;;;;11.89;100.00;101106.69;10439222;28;20169;-78
2023/03/21 11:11:04;;;;;;;8.32;4.88;;;;;;;11.96;100.00;101110.50;10440695;28;20041;-78
2023/03/21 11:16:09;;;;;;;14.82;4.72;;;;;;;12.06;100.00;101104.88;10441321;28;20041;-78
2023/03/21 11:21:11;;;;;;;15.25;5.03;;;;;;;12.31;100.00;101111.25;10465265;28;20098;-77
2023/03/21 11:26:22;;;;;;;6.68;3.08;;;;;;;12.47;100.00;101110.19;10436547;28;20041;-78
2023/03/21 11:31:37;;;;;;;6.93;3.37;;;;;;;12.59;100.00;101108.09;10423658;28;20033;-77
2023/03/21 11:36:37;;;;;;;8.60;4.00;;;;;;;12.56;100.00;101102.69;10479310;28;20047;-78
2023/03/21 11:41:39;;;;;;;7.53;3.28;;;;;;;12.53;100.00;101099.94;10464681;28;20040;-78
2023/03/21 11:46:40;;;;;;;7.00;2.85;;;;;;;12.96;100.00;101105.22;10441355;28;20042;-81
2023/03/21 11:51:46;;;;;;;4.85;2.45;;;;;;;13.82;100.00;101091.09;10398981;28;20148;-80
2023/03/21 11:56:50;;;;;;;6.68;3.22;;;;;;;13.61;100.00;101093.00;10428525;28;20083;-79
2023/03/21 12:01:56;;;;;;;8.30;4.30;;;;;;;13.45;100.00;101087.97;10469270;28;20033;-77
2023/03/21 12:07:15;;;;;;;8.80;5.00;;;;;;;13.33;100.00;101083.06;10444613;28;20041;-78
2023/03/21 12:12:22;;;;;;;6.63;2.80;;;;;;;13.31;100.00;101079.50;10457576;28;20044;-78
2023/03/21 12:17:22;;;;;;;5.78;3.35;;;;;;;13.49;100.00;101064.47;10453871;28;20577;-77
2023/03/21 12:22:40;;;;;;;5.13;2.60;;;;;;;14.17;100.00;101050.31;10471241;28;20041;-77
2023/03/21 12:28:09;;;;;;;5.47;2.45;;;;;;;15.33;100.00;101041.84;10470301;28;20492;-77
2023/03/21 12:33:48;;;;;;;9.73;4.00;;;;;;;15.75;100.00;101025.53;10469071;28;20041;-78
2023/03/21 12:39:02;;;;;;;5.47;2.55;;;;;;;15.37;96.41;101017.38;10477978;28;20455;-78
2023/03/21 12:44:16;;;;;;;5.95;2.35;;;;;;;15.40;97.89;101004.28;10459059;28;20067;-77
2023/03/21 12:49:38;;;;;;;8.05;2.83;;;;;;;15.12;100.00;100999.06;10466556;28;20042;-78
2023/03/21 12:55:18;;;;;;;8.40;3.33;;;;;;;14.85;98.68;101000.81;10429150;28;20037;-77
2023/03/21 13:00:40;;;;;;;6.30;2.95;;;;;;;15.64;93.89;100982.09;10416787;28;20044;-78
2023/03/21 13:05:45;;;;;;;5.28;3.00;;;;;;;17.34;88.76;100982.00;10470850;28;20045;-78
2023/03/21 13:10:46;;;;;;;7.68;2.75;;;;;;;17.47;79.16;100989.34;10444590;28;20105;-78
2023/03/21 13:16:03;;;;;;;5.88;3.33;;;;;;;17.97;78.07;100978.00;10431604;28;20057;-77
2023/03/21 13:21:11;;;;;;;7.30;2.38;;;;;;;16.33;80.74;100979.59;10409480;28;20375;-76
2023/03/21 13:26:12;;;;;;;4.03;1.98;;;;;;;16.35;81.04;100975.25;10419719;28;20037;-78
2023/03/21 13:31:26;;;;;;;6.38;2.85;;;;;;;16.29;75.82;100975.97;10426567;28;20128;-78
2023/03/21 13:36:28;;;;;;;6.78;2.63;;;;;;;15.00;82.63;100981.97;10429793;28;20041;-77
2023/03/21 13:41:36;;;;;;;7.03;2.97;;;;;;;14.78;92.11;100979.56;10410014;28;20481;-78
2023/03/21 13:46:52;;;;;;;8.98;5.22;;;;;;;14.89;90.58;100964.06;10468005;28;20033;-77
2023/03/21 13:51:55;;;;;;;6.10;2.70;;;;;;;15.28;88.43;100965.25;10444308;28;20040;-77
2023/03/21 13:56:57;;;;;;;8.95;3.67;;;;;;;16.13;85.13;100946.53;10440602;28;20143;-77
2023/03/21 14:01:57;;;;;;;12.45;4.05;;;;;;;17.29;83.25;100951.03;10441104;28;20044;-78
2023/03/21 14:07:03;;;;;;;10.85;3.70;;;;;;;18.51;69.67;100938.34;10444172;28;20424;-78
2023/03/21 14:12:26;;;;;;;6.68;3.22;;;;;;;18.95;66.57;100925.72;10441953;28;20141;-78
2023/03/21 14:17:28;;;;;;;5.78;2.85;;;;;;;17.22;70.96;100927.97;10442972;28;20167;-78
2023/03/21 14:22:29;;;;;;;7.25;3.38;;;;;;;15.94;75.66;100936.34;10494373;28;20370;-78
2023/03/21 14:27:31;;;;;;;5.25;3.53;;;;;;;15.33;82.34;100920.56;10443120;28;20041;-78
2023/03/21 14:32:31;;;;;;;;;;;;;;;14.43;89.46;100918.69;10441086;28;20044;-78
2023/03/21 14:37:36;;;;;;;7.00;4.18;;;;;;;14.40;94.53;100913.31;10441562;28;19929;-77
2023/03/21 14:42:38;;;;;;;9.63;4.35;;;;;;;14.67;94.14;100902.75;10425803;28;20041;-78
2023/03/21 14:47:39;;;;;;;8.43;4.20;;;;;;;14.93;89.66;100900.06;10442316;28;20044;-78
2023/03/21 14:52:39;;;;;;;8.15;3.95;;;;;;;14.73;89.63;100895.94;10441104;28;20079;-78
2023/03/21 14:57:40;;;;;;;9.23;3.58;;;;;;;15.45;86.10;100878.72;10456601;28;20044;-78
2023/03/21 15:02:41;;;;;;;10.18;3.30;;;;;;;15.63;83.89;100890.63;10444958;28;20468;-77
2023/03/21 15:07:42;;;;;;;8.60;3.22;;;;;;;14.90;92.11;100899.97;10458906;28;20557;-77
2023/03/21 15:12:52;;;;;;;9.00;4.80;;;;;;;14.31;92.67;100897.22;10444904;28;20041;-78
2023/03/21 15:17:53;;;;;;;13.48;6.63;;;;;;;14.15;100.00;100888.81;10488623;28;20048;-77
2023/03/21 15:22:55;;;;;;;9.17;4.17;;;;;;;14.03;100.00;100885.78;10469996;28;20045;-77
2023/03/21 15:27:55;;;;;;;13.35;3.85;;;;;;;13.89;100.00;100887.94;10484343;28;20045;-77
2023/03/21 15:32:56;;;;;;;9.48;2.85;;;;;;;13.72;100.00;100882.97;10448613;28;20175;-77
2023/03/21 15:37:57;;;;;;;7.88;3.03;;;;;;;13.56;100.00;100893.78;10465169;28;20028;-77
2023/03/21 15:43:15;;;;;;;10.00;2.97;;;;;;;13.45;100.00;100896.06;10491712;28;20106;-77
2023/03/21 15:48:15;;;;;;;7.57;3.20;;;;;;;13.30;100.00;100894.63;10489175;28;20068;-77
2023/03/21 15:53:17;;;;;;;7.28;3.53;;;;;;;13.21;100.00;100886.38;10450220;28;20090;-77
2023/03/21 15:58:19;;;;;;;5.15;2.65;;;;;;;13.34;100.00;100891.25;10471532;28;20480;-77
2023/03/21 16:03:36;;;;;;;6.75;2.30;;;;;;;13.34;100.00;100877.22;10448974;28;20041;-77
2023/03/21 16:08:42;;;;;;;12.70;4.43;;;;;;;13.24;100.00;100878.63;10447664;28;20033;-78
2023/03/21 16:13:42;;;;;;;17.65;8.07;;;;;;;13.12;100.00;100891.31;10465220;28;20492;-77
2023/03/21 16:18:43;;;;;;;7.60;2.83;;;;;;;12.97;100.00;100894.22;10477579;28;20052;-77
2023/03/21 16:23:44;;;;;;;5.65;3.03;;;;;;;12.91;100.00;100889.66;10464628;28;20052;-77
2023/03/21 16:28:45;;;;;;;6.88;2.70;;;;;;;12.76;100.00;100893.47;10446564;28;20087;-77
2023/03/21 16:33:46;;;;;;;8.13;3.13;;;;;;;12.69;100.00;100901.94;10446363;28;20554;-77
2023/03/21 16:38:48;;;;;;;15.70;5.13;;;;;;;12.68;100.00;100905.41;10448209;28;20108;-77
2023/03/21 16:43:49;;;;;;;;;;;;;;;12.67;100.00;100902.69;10448013;28;20033;-77
2023/03/21 16:48:53;;;;;;;10.82;3.10;;;;;;;12.57;100.00;100904.09;10476525;28;20269;-77
2023/03/21 16:53:55;;;;;;;7.70;3.25;;;;;;;12.56;100.00;100911.03;10463767;28;20139;-77
2023/03/21 16:58:55;;;;;;;21.60;6.13;;;;;;;12.59;100.00;100919.03;10456226;28;20060;-77
2023/03/21 17:03:59;;;;;;;6.38;3.00;;;;;;;12.62;100.00;100920.91;10445286;28;20108;-77
2023/03/21 17:09:00;;;;;;;10.07;3.35;;;;;;;12.51;100.00;100923.09;10405208;28;20117;-77
2023/03/21 17:14:01;;;;;;;9.70;2.80;;;;;;;12.54;100.00;100924.97;10417259;28;20044;-77
2023/03/21 17:19:05;;;;;;;7.33;3.53;;;;;;;12.33;100.00;100926.75;10443338;28;20029;-77
2023/03/21 17:24:06;;;;;;;7.60;3.53;;;;;;;12.24;100.00;100928.13;10457404;28;20382;-77
2023/03/21 17:29:06;;;;;;;8.43;3.60;;;;;;;12.18;100.00;100933.97;10444331;28;20497;-78
2023/03/21 17:34:08;;;;;;;14.57;3.45;;;;;;;12.16;100.00;100935.66;10450441;28;20032;-78
2023/03/21 17:39:13;;;;;;;14.07;6.50;;;;;;;12.14;100.00;100939.94;10486579;28;20128;-77
2023/03/21 17:44:14;;;;;;;9.43;3.65;;;;;;;12.07;100.00;100940.50;10495578;28;20036;-78
2023/03/21 17:49:15;;;;;;;9.50;4.00;;;;;;;12.01;100.00;100941.16;10445803;28;20032;-77
2023/03/21 17:54:15;;;;;;;6.47;3.92;;;;;;;11.90;100.00;100943.25;10481003;28;20106;-77
2023/03/21 17:59:16;;;;;;;6.55;3.88;;;;;;;11.84;100.00;100943.91;10486250;28;20123;-77
2023/03/21 18:04:16;;;;;;;5.95;3.55;;;;;;;11.76;100.00;100947.91;10482131;28;20032;-78
2023/03/21 18:09:18;;;;;;;6.88;4.00;;;;;;;11.69;100.00;100941.50;10485734;28;20060;-78
2023/03/21 18:14:19;;;;;;;9.85;4.75;;;;;;;11.61;100.00;100950.75;10472547;28;20033;-77
2023/03/21 18:19:20;;;;;;;11.27;4.72;;;;;;;11.55;100.00;100947.84;10475453;28;20083;-77
2023/03/21 18:24:20;;;;;;;11.75;7.13;;;;;;;11.45;100.00;100955.28;10455251;28;20491;-77
2023/03/21 18:29:21;;;;;;;10.82;4.68;;;;;;;11.42;100.00;100952.53;10420167;28;20182;-78
2023/03/21 18:34:21;;;;;;;8.30;6.28;;;;;;;11.38;100.00;100950.59;10450645;28;20515;-78
2023/03/21 18:39:22;;;;;;;11.70;5.72;;;;;;;11.28;100.00;100956.25;10442667;28;20129;-77
2023/03/21 18:44:24;;;;;;;7.75;5.68;;;;;;;11.23;100.00;100956.03;10443755;28;20040;-78
2023/03/21 18:49:24;;;;;;;;;;;;;;;11.08;100.00;100957.94;10443496;28;20469;-77
2023/03/21 18:54:25;;;;;;;6.28;4.55;;;;;;;11.00;100.00;100947.09;10453016;28;19925;-77
2023/03/21 18:59:26;;;;;;;9.45;5.47;;;;;;;10.77;100.00;100949.50;10479709;28;20119;-78
2023/03/21 19:04:26;;;;;;;6.35;4.45;;;;;;;10.61;100.00;100939.13;10456755;28;20117;-78
2023/03/21 19:09:27;;;;;;;7.30;5.68;;;;;;;10.72;100.00;100948.41;10447584;28;20059;-77
2023/03/21 19:14:27;;;;;;;9.02;4.68;;;;;;;10.64;100.00;100940.19;10482762;28;20115;-78
2023/03/21 19:19:28;;;;;;;11.57;4.97;;;;;;;10.75;100.00;100929.34;10467436;28;20045;-77
2023/03/21 19:24:28;;;;;;;7.15;3.83;;;;;;;10.76;100.00;100921.53;10440672;28;20116;-78
2023/03/21 19:29:29;;;;;;;6.50;4.00;;;;;;;10.69;100.00;100922.06;10453037;28;20045;-77
2023/03/21 19:34:30;;;;;;;10.95;5.28;;;;;;;10.75;100.00;100911.00;10444417;28;20048;-77
2023/03/21 19:39:30;;;;;;;8.15;4.80;;;;;;;10.74;100.00;100917.06;10443281;28;20045;-77
2023/03/21 19:44:32;;;;;;;6.18;3.70;;;;;;;10.74;100.00;100917.06;10472969;28;20557;-78
2023/03/21 19:49:32;;;;;;;9.70;5.00;;;;;;;10.68;100.00;100918.56;10484529;28;20036;-77
2023/03/21 19:54:34;;;;;;;6.88;4.55;;;;;;;10.68;100.00;100918.56;10488584;28;20127;-77
2023/03/21 19:59:34;;;;;;;6.73;3.27;;;;;;;10.55;100.00;100931.88;10490957;28;20036;-78
2023/03/21 20:04:35;;;;;;;12.02;4.78;;;;;;;10.45;100.00;100925.28;10456612;28;20407;-78
2023/03/21 20:09:36;;;;;;;8.25;4.57;;;;;;;10.38;100.00;100926.69;10470612;28;20128;-78
2023/03/21 20:14:36;;;;;;;10.25;7.05;;;;;;;10.25;100.00;100922.56;10486460;28;20132;-78
2023/03/21 20:19:37;;;;;;;11.23;5.30;;;;;;;10.15;100.00;100920.31;10491215;28;20064;-78
2023/03/21 20:24:41;;;;;;;12.52;5.78;;;;;;;10.01;100.00;100926.56;10501827;28;20083;-77
2023/03/21 20:29:42;;;;;;;9.73;6.07;;;;;;;10.04;100.00;100921.47;10456776;28;20057;-78
2023/03/21 20:34:43;;;;;;;8.10;5.97;;;;;;;10.15;100.00;100920.31;10447168;28;20540;-77
2023/03/21 20:39:43;;;;;;;10.45;6.00;;;;;;;10.17;100.00;100920.41;10447712;28;20034;-78
2023/03/21 20:44:44;;;;;;;10.20;7.07;;;;;;;10.19;100.00;100916.13;10476313;28;20044;-78
2023/03/21 20:49:44;;;;;;;11.07;7.05;;;;;;;10.23;100.00;100913.72;10456133;28;20119;-78
2023/03/21 20:54:46;;;;;;;12.73;6.00;;;;;;;10.28;100.00;100927.94;10477726;28;20392;-78
2023/03/21 20:59:46;;;;;;;11.20;7.37;;;;;;;10.47;100.00;100918.41;10472799;28;20037;-78
2023/03/21 21:04:48;;;;;;;11.27;6.40;;;;;;;10.42;100.00;100918.22;10439727;28;20472;-77
2023/03/21 21:09:49;;;;;;;11.83;7.33;;;;;;;10.45;100.00;100924.41;10451424;28;20044;-78
2023/03/21 21:14:49;;;;;;;9.93;6.88;;;;;;;10.48;100.00;100914.97;10425169;28;20037;-78
2023/03/21 21:19:50;;;;;;;9.32;6.32;;;;;;;10.62;100.00;100912.13;10442880;28;20449;-78
2023/03/21 21:24:51;;;;;;;11.30;7.30;;;;;;;10.48;100.00;100914.09;10471195;28;20451;-78
2023/03/21 21:29:51;;;;;;;16.58;8.30;;;;;;;10.32;100.00;100918.53;10518536;28;20068;-78
2023/03/21 21:34:52;;;;;;;10.30;6.53;;;;;;;10.33;100.00;100908.97;10484034;28;20547;-78
2023/03/21 21:39:53;;;;;;;11.48;6.93;;;;;;;10.09;100.00;100912.16;10478715;28;20047;-78
2023/03/21 21:44:53;;;;;;;15.88;7.03;;;;;;;10.17;100.00;100902.97;10479542;28;20446;-78
2023/03/21 21:49:53;;;;;;;12.80;6.57;;;;;;;10.03;100.00;100907.53;10487380;28;20119;-78
2023/03/21 21:54:54;;;;;;;10.70;7.40;;;;;;;10.00;100.00;100904.75;10455122;28;20063;-77
2023/03/21 21:59:54;;;;;;;14.20;7.70;;;;;;;10.09;100.00;100896.47;10461898;28;20429;-78
2023/03/21 22:04:55;;;;;;;13.18;6.95;;;;;;;10.11;100.00;100895.72;10452862;28;20041;-77
2023/03/21 22:09:56;;;;;;;9.40;6.55;;;;;;;10.05;100.00;100884.97;10446258;28;20082;-78
2023/03/21 22:14:56;;;;;;;15.48;7.65;;;;;;;9.99;100.00;100893.38;10477612;28;20120;-78
2023/03/21 22:19:57;;;;;;;8.77;6.05;;;;;;;10.05;100.00;100890.19;10518084;28;20064;-77
2023/03/21 22:24:57;;;;;;;14.82;8.23;;;;;;;10.17;100.00;100873.31;10456067;28;20132;-78
2023/03/21 22:30:03;;;;;;;15.13;6.75;;;;;;;10.27;100.00;100880.78;10442733;28;20128;-78
2023/03/21 22:35:04;;;;;;;12.75;7.65;;;;;;;10.28;100.00;100867.78;10442784;28;20037;-78
2023/03/21 22:40:12;;;;;;;8.63;6.72;;;;;;;10.32;100.00;100889.75;10426681;28;20060;-78
2023/03/21 22:45:13;;;;;;;15.70;7.07;;;;;;;10.25;100.00;100887.66;10437927;28;20033;-77
2023/03/21 22:50:13;;;;;;;11.82;6.57;;;;;;;10.25;100.00;100888.56;10442065;28;20045;-78
2023/03/21 22:55:14;;;;;;;11.60;7.10;;;;;;;10.41;100.00;100892.88;10470031;28;20563;-77
2023/03/21 23:00:15;;;;;;;12.57;8.32;;;;;;;10.39;100.00;100876.19;10483990;28;20045;-78